createdAt,value
2019-05-11T00:01:37.896Z,97755.25
2019-05-11T00:04:09.109Z,97753.94
2019-05-11T00:06:40.111Z,97758.61
2019-05-11T00:09:11.369Z,97755.51
2019-05-11T00:11:42.959Z,97753.02
2019-05-11T00:14:14.070Z,97750.84
2019-05-11T00:16:45.286Z,97756.56
2019-05-11T00:19:16.738Z,97752.28
2019-05-11T00:21:47.679Z,97755.03
2019-05-11T00:24:18.819Z,97753.11
2019-05-11T00:26:49.965Z,97760.36
2019-05-11T00:29:21.153Z,97757.03
2019-05-11T00:31:52.366Z,97758.92
2019-05-11T00:34:23.491Z,97757.12
2019-05-11T00:36:54.696Z,97748.00
2019-05-11T00:39:25.902Z,97748.00
2019-05-11T00:41:57.195Z,97748.23
2019-05-11T00:44:28.320Z,97751.80
2019-05-11T00:47:04.129Z,97743.95
2019-05-11T00:49:35.318Z,97742.50
2019-05-11T00:52:06.521Z,97740.50
2019-05-11T00:54:37.559Z,97736.80
2019-05-11T00:57:08.476Z,97737.36
2019-05-11T00:59:39.770Z,97742.12
2019-05-11T01:02:10.878Z,97740.45
2019-05-11T01:04:41.969Z,97736.53
2019-05-11T01:07:13.382Z,97740.50
2019-05-11T01:09:44.581Z,97740.59
2019-05-11T01:12:15.911Z,97748.22
2019-05-11T01:14:48.616Z,97754.98
2019-05-11T01:17:19.627Z,97748.35
2019-05-11T01:19:50.749Z,97745.47
2019-05-11T01:22:21.837Z,97745.47
2019-05-11T01:24:52.752Z,97747.83
2019-05-11T01:27:23.773Z,97748.66
2019-05-11T01:29:54.887Z,97758.08
2019-05-11T01:32:25.863Z,97754.85
2019-05-11T01:34:56.869Z,97757.95
2019-05-11T01:37:28.360Z,97767.25
2019-05-11T01:39:59.473Z,97764.41
2019-05-11T01:42:30.543Z,97765.37
2019-05-11T01:45:01.760Z,97762.27
2019-05-11T01:47:32.880Z,97765.63
2019-05-11T01:50:04.478Z,97769.33
2019-05-11T01:52:35.632Z,97765.15
2019-05-11T01:55:07.466Z,97770.51
2019-05-11T01:57:38.535Z,97771.84
2019-05-11T02:00:11.704Z,97770.28
2019-05-11T02:02:43.038Z,97773.63
2019-05-11T02:05:30.238Z,97764.48
2019-05-11T02:08:03.125Z,97765.53
2019-05-11T02:10:34.700Z,97765.43
2019-05-11T02:13:05.738Z,97769.48
2019-05-11T02:15:36.910Z,97762.69
2019-05-11T02:18:08.146Z,97761.28
2019-05-11T02:20:39.248Z,97759.50
2019-05-11T02:23:10.334Z,97761.28
2019-05-11T02:25:41.456Z,97763.64
2019-05-11T02:28:12.510Z,97762.11
2019-05-11T02:30:43.840Z,97764.14
2019-05-11T02:33:15.173Z,97761.75
2019-05-11T02:35:46.294Z,97767.23
2019-05-11T02:38:17.286Z,97764.93
2019-05-11T02:40:48.498Z,97766.36
2019-05-11T02:43:19.725Z,97768.27
2019-05-11T02:45:50.963Z,97772.09
2019-05-11T02:48:22.221Z,97773.49
2019-05-11T02:50:55.791Z,97779.20
2019-05-11T02:53:30.034Z,97783.59
2019-05-11T02:56:03.851Z,97782.17
2019-05-11T02:58:36.444Z,97777.65
2019-05-11T03:01:09.038Z,97784.19
2019-05-11T03:03:40.223Z,97785.88
2019-05-11T03:06:12.831Z,97784.66
2019-05-11T03:08:44.027Z,97784.92
2019-05-11T03:11:15.189Z,97788.49
2019-05-11T03:13:46.356Z,97790.02
2019-05-11T03:16:17.300Z,97788.00
2019-05-11T03:18:48.567Z,97796.66
2019-05-11T03:21:19.821Z,97794.05
2019-05-11T03:23:51.223Z,97798.80
2019-05-11T03:26:22.267Z,97800.83
2019-05-11T03:28:53.537Z,97806.03
2019-05-11T03:31:24.526Z,97800.34
2019-05-11T03:33:57.381Z,97804.97
2019-05-11T03:36:28.330Z,97807.35
2019-05-11T03:38:59.512Z,97804.50
2019-05-11T03:41:30.350Z,97809.25
2019-05-11T03:44:01.521Z,97807.35
2019-05-11T03:46:32.815Z,97806.26
2019-05-11T03:49:03.997Z,97814.34
2019-05-11T03:51:35.029Z,97817.55
2019-05-11T03:54:06.197Z,97821.32
2019-05-11T03:56:37.019Z,97823.73
2019-05-11T03:59:08.047Z,97817.67
2019-05-11T04:01:39.392Z,97824.41
2019-05-11T04:04:10.587Z,97825.62
2019-05-11T04:06:41.788Z,97828.59
2019-05-11T04:09:13.166Z,97828.00
2019-05-11T04:11:44.250Z,97828.13
2019-05-11T04:14:15.150Z,97841.78
2019-05-11T04:16:46.273Z,97840.12
2019-05-11T04:19:17.523Z,97840.23
2019-05-11T04:21:48.791Z,97845.70
2019-05-11T04:24:19.915Z,97842.38
2019-05-11T04:26:50.981Z,97846.89
2019-05-11T04:29:22.229Z,97839.16
2019-05-11T04:31:53.459Z,97838.72
2019-05-11T04:34:24.589Z,97839.53
2019-05-11T04:36:55.930Z,97838.50
2019-05-11T04:39:26.945Z,97838.85
2019-05-11T04:41:57.928Z,97841.84
2019-05-11T04:44:29.182Z,97839.48
2019-05-11T04:47:00.983Z,97842.33
2019-05-11T04:49:32.127Z,97846.60
2019-05-11T04:52:03.096Z,97843.62
2019-05-11T04:54:34.151Z,97845.19
2019-05-11T04:57:05.319Z,97849.70
2019-05-11T04:59:36.381Z,97847.95
2019-05-11T05:02:07.476Z,97845.79
2019-05-11T05:04:38.343Z,97841.88
2019-05-11T05:07:10.733Z,97839.98
2019-05-11T05:09:44.755Z,97833.67
2019-05-11T05:12:15.983Z,97837.95
2019-05-11T05:14:46.925Z,97841.41
2019-05-11T05:17:18.174Z,97840.47
2019-05-11T05:19:49.315Z,97846.28
2019-05-11T05:22:20.615Z,97848.75
2019-05-11T05:24:51.837Z,97849.77
2019-05-11T05:27:23.042Z,97845.97
2019-05-11T05:29:54.048Z,97847.15
2019-05-11T05:32:42.864Z,97852.57
2019-05-11T05:35:14.108Z,97852.83
2019-05-11T05:37:45.128Z,97850.00
2019-05-11T05:40:16.539Z,97857.98
2019-05-11T05:42:47.575Z,97858.33
2019-05-11T05:45:19.097Z,97853.31
2019-05-11T05:47:50.081Z,97857.67
2019-05-11T05:50:21.154Z,97854.31
2019-05-11T05:52:52.303Z,97856.31
2019-05-11T05:55:23.565Z,97856.80
2019-05-11T05:57:54.939Z,97855.95
2019-05-11T06:00:26.650Z,97856.84
2019-05-11T06:02:57.735Z,97859.08
2019-05-11T06:05:29.086Z,97866.94
2019-05-11T06:08:00.334Z,97860.95
2019-05-11T06:10:31.953Z,97854.59
2019-05-11T06:13:04.537Z,97865.97
2019-05-11T06:15:35.887Z,97867.82
2019-05-11T06:18:07.522Z,97867.13
2019-05-11T06:20:38.537Z,97868.49
2019-05-11T06:23:09.590Z,97864.92
2019-05-11T06:25:40.926Z,97862.42
2019-05-11T06:28:12.081Z,97865.73
2019-05-11T06:30:43.281Z,97865.04
2019-05-11T06:33:14.564Z,97858.75
2019-05-11T06:35:45.787Z,97861.05
2019-05-11T06:38:16.886Z,97862.66
2019-05-11T06:40:48.022Z,97854.99
2019-05-11T06:43:19.384Z,97863.23
2019-05-11T06:45:51.944Z,97856.75
2019-05-11T06:48:23.169Z,97857.93
2019-05-11T06:50:54.179Z,97857.09
2019-05-11T06:53:25.464Z,97853.48
2019-05-11T06:55:56.584Z,97851.05
2019-05-11T06:58:27.744Z,97851.23
2019-05-11T07:00:58.872Z,97847.41
2019-05-11T07:03:30.064Z,97847.75
2019-05-11T07:06:01.424Z,97845.50
2019-05-11T07:08:32.428Z,97842.71
2019-05-11T07:11:03.801Z,97839.84
2019-05-11T07:13:35.122Z,97844.49
2019-05-11T07:16:06.556Z,97834.88
2019-05-11T07:18:37.620Z,97836.78
2019-05-11T07:21:08.840Z,97830.16
2019-05-11T07:23:40.035Z,97833.67
2019-05-11T07:26:11.167Z,97835.56
2019-05-11T07:28:44.036Z,97830.52
2019-05-11T07:31:15.184Z,97827.16
2019-05-11T07:33:48.489Z,97830.20
2019-05-11T07:36:19.319Z,97831.48
2019-05-11T07:38:50.493Z,97834.03
2019-05-11T07:41:21.524Z,97828.48
2019-05-11T07:43:53.054Z,97823.28
2019-05-11T07:46:24.158Z,97821.52
2019-05-11T07:48:55.233Z,97829.91
2019-05-11T07:51:28.794Z,97830.00
2019-05-11T07:53:59.948Z,97824.42
2019-05-11T07:56:31.022Z,97827.80
2019-05-11T07:59:02.154Z,97814.64
2019-05-11T08:01:33.334Z,97816.52
2019-05-11T08:04:05.149Z,97812.43
2019-05-11T08:06:36.308Z,97813.45
2019-05-11T08:09:08.719Z,97803.67
2019-05-11T08:11:39.838Z,97800.05
2019-05-11T08:14:11.286Z,97801.83
2019-05-11T08:16:42.431Z,97802.42
2019-05-11T08:19:13.813Z,97808.58
2019-05-11T08:21:44.767Z,97806.11
2019-05-11T08:24:17.942Z,97800.81
2019-05-11T08:26:48.748Z,97798.30
2019-05-11T08:29:20.014Z,97802.23
2019-05-11T08:31:51.080Z,97797.19
2019-05-11T08:34:22.086Z,97800.06
2019-05-11T08:36:53.841Z,97795.24
2019-05-11T08:39:25.092Z,97807.39
2019-05-11T08:41:56.738Z,97800.98
2019-05-11T08:44:29.045Z,97798.87
2019-05-11T08:47:00.380Z,97802.91
2019-05-11T08:49:31.304Z,97805.97
2019-05-11T08:52:03.066Z,97795.52
2019-05-11T08:54:34.455Z,97797.05
2019-05-11T08:59:37.922Z,97801.64
2019-05-11T09:02:08.451Z,97799.75
2019-05-11T09:04:42.079Z,97790.31
2019-05-11T09:07:12.613Z,97796.34
2019-05-11T09:09:43.670Z,97792.31
2019-05-11T09:12:15.223Z,97789.22
2019-05-11T09:14:47.835Z,97776.25
2019-05-11T09:17:19.121Z,97783.45
2019-05-11T09:19:50.398Z,97774.31
2019-05-11T09:22:21.330Z,97774.83
2019-05-11T09:24:52.365Z,97776.30
2019-05-11T09:27:23.439Z,97774.93
2019-05-11T09:29:55.061Z,97769.95
2019-05-11T09:32:28.514Z,97774.49
2019-05-11T09:34:59.296Z,97786.19
2019-05-11T09:37:30.542Z,97796.88
2019-05-11T09:40:01.663Z,97796.59
2019-05-11T09:42:32.877Z,97794.55
2019-05-11T09:45:04.847Z,97799.17
2019-05-11T09:47:38.418Z,97802.98
2019-05-11T09:50:09.306Z,97803.45
2019-05-11T09:52:40.621Z,97793.30
2019-05-11T09:55:12.363Z,97791.97
2019-05-11T09:57:43.609Z,97789.69
2019-05-11T10:00:17.904Z,97796.61
2019-05-11T10:02:49.122Z,97792.52
2019-05-11T10:05:20.385Z,97777.61
2019-05-11T10:07:51.667Z,97775.37
2019-05-11T10:10:22.873Z,97752.63
2019-05-11T10:12:54.000Z,97752.38
2019-05-11T10:15:25.185Z,97757.56
2019-05-11T10:17:58.219Z,97739.77
2019-05-11T10:20:29.313Z,97731.64
2019-05-11T10:23:00.402Z,97731.42
2019-05-11T10:25:31.475Z,97715.55
2019-05-11T10:28:02.723Z,97711.19
2019-05-11T10:30:33.879Z,97714.14
2019-05-11T10:33:05.283Z,97708.98
2019-05-11T10:35:37.831Z,97729.45
2019-05-11T10:38:09.234Z,97719.78
2019-05-11T10:40:40.387Z,97724.74
2019-05-11T10:43:11.597Z,97729.27
2019-05-11T10:45:42.504Z,97726.09
2019-05-11T10:48:13.551Z,97703.24
2019-05-11T10:50:45.331Z,97692.98
2019-05-11T10:53:18.502Z,97698.05
2019-05-11T10:55:49.507Z,97688.12
2019-05-11T10:58:20.663Z,97694.13
2019-05-11T11:00:52.019Z,97689.69
2019-05-11T11:03:23.637Z,97685.69
2019-05-11T11:05:54.801Z,97691.34
2019-05-11T11:08:27.871Z,97680.87
2019-05-11T11:10:59.165Z,97684.21
2019-05-11T11:13:30.361Z,97687.98
2019-05-11T11:16:02.121Z,97686.56
2019-05-11T11:18:33.331Z,97679.25
2019-05-11T11:21:04.560Z,97686.80
2019-05-11T11:23:35.646Z,97685.08
2019-05-11T11:26:08.231Z,97684.06
2019-05-11T11:28:40.024Z,97677.06
2019-05-11T11:31:11.076Z,97682.92
2019-05-11T11:33:42.268Z,97674.02
2019-05-11T11:36:13.536Z,97670.41
2019-05-11T11:38:44.757Z,97663.96
2019-05-11T11:41:17.859Z,97659.63
2019-05-11T11:43:48.641Z,97664.48
2019-05-11T11:46:19.993Z,97664.09
2019-05-11T11:48:51.036Z,97665.05
2019-05-11T11:51:22.482Z,97667.03
2019-05-11T11:53:53.716Z,97667.45
2019-05-11T11:56:25.318Z,97665.65
2019-05-11T11:58:57.911Z,97660.07
2019-05-11T12:01:29.453Z,97656.70
2019-05-11T12:04:00.372Z,97665.11
2019-05-11T12:06:32.976Z,97661.89
2019-05-11T12:09:08.507Z,97656.05
2019-05-11T12:11:38.752Z,97661.50
2019-05-11T12:14:09.723Z,97658.20
2019-05-11T12:16:40.848Z,97658.56
2019-05-11T12:19:12.080Z,97663.59
2019-05-11T12:21:42.987Z,97661.96
2019-05-11T12:24:14.274Z,97656.84
2019-05-11T12:26:47.840Z,97657.94
2019-05-11T12:29:18.956Z,97662.13
2019-05-11T12:31:50.016Z,97661.20
2019-05-11T12:34:21.190Z,97663.06
2019-05-11T12:36:52.340Z,97657.73
2019-05-11T12:39:23.546Z,97658.08
2019-05-11T12:41:55.064Z,97654.72
2019-05-11T12:44:28.368Z,97659.13
2019-05-11T12:46:59.308Z,97651.19
2019-05-11T12:49:30.463Z,97653.45
2019-05-11T12:52:01.956Z,97651.05
2019-05-11T12:54:34.111Z,97645.81
2019-05-11T12:57:07.737Z,97644.10
2019-05-11T12:59:38.276Z,97642.85
2019-05-11T13:02:10.508Z,97643.38
2019-05-11T13:04:41.958Z,97640.52
2019-05-11T13:07:16.461Z,97638.14
2019-05-11T13:09:48.274Z,97646.81
2019-05-11T13:12:18.840Z,97639.72
2019-05-11T13:14:50.121Z,97638.23
2019-05-11T13:17:34.221Z,97632.95
2019-05-11T13:19:54.655Z,97632.88
2019-05-11T13:22:25.781Z,97627.66
2019-05-11T13:24:58.843Z,97629.33
2019-05-11T13:27:29.834Z,97622.73
2019-05-11T13:30:01.032Z,97625.34
2019-05-11T13:32:33.066Z,97628.79
2019-05-11T13:35:05.120Z,97625.39
2019-05-11T13:37:38.461Z,97622.95
2019-05-11T13:40:11.164Z,97624.32
2019-05-11T13:42:42.249Z,97621.14
2019-05-11T13:45:13.661Z,97619.61
2019-05-11T13:47:52.613Z,97617.94
2019-05-11T13:50:18.305Z,97619.66
2019-05-11T13:52:49.752Z,97620.95
2019-05-11T13:55:25.107Z,97613.11
2019-05-11T13:57:57.890Z,97611.20
2019-05-11T14:00:29.934Z,97608.17
2019-05-11T14:03:03.136Z,97603.97
2019-05-11T14:05:34.377Z,97608.63
2019-05-11T14:08:07.876Z,97609.59
2019-05-11T14:10:38.596Z,97607.92
2019-05-11T14:13:09.857Z,97607.77
2019-05-11T14:15:41.023Z,97600.13
2019-05-11T14:18:12.252Z,97595.86
2019-05-11T14:20:43.629Z,97594.23
2019-05-11T14:23:14.796Z,97595.59
2019-05-11T14:25:48.467Z,97595.71
2019-05-11T14:28:19.883Z,97600.72
2019-05-11T14:30:51.104Z,97605.97
2019-05-11T14:33:22.243Z,97600.55
2019-05-11T14:35:53.506Z,97609.83
2019-05-11T14:38:24.545Z,97608.41
2019-05-11T14:40:55.709Z,97606.79
2019-05-11T14:43:27.724Z,97605.19
2019-05-11T14:45:59.055Z,97603.87
2019-05-11T14:48:31.454Z,97602.55
2019-05-11T14:51:02.624Z,97603.74
2019-05-11T14:53:34.118Z,97601.55
2019-05-11T14:56:05.277Z,97600.21
2019-05-11T14:58:38.613Z,97601.19
2019-05-11T15:01:09.257Z,97603.29
2019-05-11T15:03:40.173Z,97608.13
2019-05-11T15:06:11.253Z,97609.00
2019-05-11T15:08:42.323Z,97603.34
2019-05-11T15:11:13.294Z,97609.60
2019-05-11T15:13:44.522Z,97607.02
2019-05-11T15:16:15.817Z,97610.98
2019-05-11T15:18:48.442Z,97610.49
2019-05-11T15:21:19.543Z,97610.62
2019-05-11T15:23:50.668Z,97606.09
2019-05-11T15:26:21.751Z,97613.91
2019-05-11T15:28:52.945Z,97615.34
2019-05-11T15:31:23.943Z,97620.47
2019-05-11T15:33:55.579Z,97613.80
2019-05-11T15:36:28.566Z,97609.58
2019-05-11T15:38:59.842Z,97616.01
2019-05-11T15:41:30.872Z,97606.41
2019-05-11T15:44:02.486Z,97616.98
2019-05-11T15:46:34.062Z,97611.89
2019-05-11T15:49:05.385Z,97606.22
2019-05-11T15:51:38.283Z,97605.02
2019-05-11T15:54:09.384Z,97609.74
2019-05-11T15:56:41.199Z,97608.41
2019-05-11T15:59:12.647Z,97611.58
2019-05-11T16:01:43.769Z,97608.00
2019-05-11T16:04:14.844Z,97605.44
2019-05-11T16:06:45.955Z,97608.10
2019-05-11T16:09:18.389Z,97611.99
2019-05-11T16:11:49.648Z,97614.78
2019-05-11T16:14:20.950Z,97615.20
2019-05-11T16:16:52.079Z,97610.88
2019-05-11T16:19:23.164Z,97617.19
2019-05-11T16:21:54.609Z,97615.84
2019-05-11T16:24:25.730Z,97615.74
2019-05-11T16:26:58.204Z,97610.18
2019-05-11T16:29:29.338Z,97608.75
2019-05-11T16:32:00.880Z,97606.70
2019-05-11T16:34:31.960Z,97609.86
2019-05-11T16:37:05.385Z,97614.84
2019-05-11T16:39:35.791Z,97613.47
2019-05-11T16:42:08.499Z,97614.19
2019-05-11T16:44:40.093Z,97613.50
2019-05-11T16:47:11.566Z,97621.30
2019-05-11T16:49:44.498Z,97620.31
2019-05-11T16:52:15.676Z,97624.61
2019-05-11T16:54:47.772Z,97619.52
2019-05-11T16:57:18.952Z,97620.14
2019-05-11T16:59:49.921Z,97624.80
2019-05-11T17:02:21.260Z,97618.17
2019-05-11T17:04:52.552Z,97623.35
2019-05-11T17:07:23.526Z,97628.88
2019-05-11T17:09:54.760Z,97621.56
2019-05-11T17:12:28.539Z,97625.02
2019-05-11T17:14:59.610Z,97636.34
2019-05-11T17:17:30.746Z,97632.14
2019-05-11T17:20:01.833Z,97633.61
2019-05-11T17:22:33.109Z,97638.16
2019-05-11T17:25:08.376Z,97645.73
2019-05-11T17:27:38.973Z,97651.20
2019-05-11T17:30:11.529Z,97651.95
2019-05-11T17:32:42.610Z,97650.86
2019-05-11T17:35:14.266Z,97651.83
2019-05-11T17:37:48.224Z,97653.29
2019-05-11T17:40:23.110Z,97654.39
2019-05-11T17:42:53.880Z,97648.84
2019-05-11T17:45:24.934Z,97656.20
2019-05-11T17:47:57.940Z,97657.48
2019-05-11T17:50:28.810Z,97661.45
2019-05-11T17:53:00.029Z,97664.67
2019-05-11T17:55:31.279Z,97664.38
2019-05-11T17:58:02.538Z,97654.51
2019-05-11T18:00:33.962Z,97669.50
2019-05-11T18:03:07.464Z,97666.23
2019-05-11T18:05:38.067Z,97665.44
2019-05-11T18:08:09.437Z,97664.66
2019-05-11T18:10:40.398Z,97666.16
2019-05-11T18:13:11.490Z,97667.73
2019-05-11T18:15:42.740Z,97670.09
2019-05-11T18:18:14.105Z,97675.71
2019-05-11T18:20:45.682Z,97677.23
2019-05-11T18:23:17.615Z,97675.44
2019-05-11T18:25:49.189Z,97685.05
2019-05-11T18:28:20.424Z,97683.75
2019-05-11T18:30:51.478Z,97689.72
2019-05-11T18:33:22.488Z,97696.16
2019-05-11T18:35:53.722Z,97697.50
2019-05-11T18:38:24.878Z,97699.48
2019-05-11T18:40:58.037Z,97706.27
2019-05-11T18:43:28.896Z,97706.11
2019-05-11T18:46:00.172Z,97707.77
2019-05-11T18:48:31.388Z,97711.09
2019-05-11T18:51:02.651Z,97710.27
2019-05-11T18:53:33.735Z,97710.25
2019-05-11T18:56:04.825Z,97720.19
2019-05-11T18:58:38.229Z,97719.03
2019-05-11T19:01:08.807Z,97720.85
2019-05-11T19:03:40.105Z,97729.59
2019-05-11T19:06:11.357Z,97729.78
2019-05-11T19:08:42.620Z,97733.23
2019-05-11T19:11:13.796Z,97732.42
2019-05-11T19:13:45.042Z,97736.06
2019-05-11T19:16:18.629Z,97733.06
2019-05-11T19:18:50.828Z,97737.67
2019-05-11T19:21:22.197Z,97735.02
2019-05-11T19:23:53.819Z,97734.04
2019-05-11T19:26:24.811Z,97737.65
2019-05-11T19:28:57.869Z,97734.53
2019-05-11T19:31:28.643Z,97736.17
2019-05-11T19:33:59.717Z,97735.52
2019-05-11T19:36:30.868Z,97740.63
2019-05-11T19:39:01.942Z,97738.31
2019-05-11T19:41:33.374Z,97735.67
2019-05-11T19:44:05.525Z,97743.77
2019-05-11T19:46:38.770Z,97747.25
2019-05-11T19:49:10.477Z,97744.77
2019-05-11T19:51:42.657Z,97745.23
2019-05-11T19:54:14.104Z,97749.20
2019-05-11T19:56:46.916Z,97749.20
2019-05-11T19:59:18.023Z,97749.38
2019-05-11T20:01:49.112Z,97753.02
2019-05-11T20:04:20.181Z,97756.30
2019-05-11T20:06:51.336Z,97758.92
2019-05-11T20:09:22.643Z,97758.75
2019-05-11T20:11:53.893Z,97766.16
2019-05-11T20:14:25.029Z,97765.99
2019-05-11T20:16:56.745Z,97757.41
2019-05-11T20:19:28.343Z,97756.41
2019-05-11T20:21:59.521Z,97756.42
2019-05-11T20:24:30.613Z,97763.69
2019-05-11T20:27:01.838Z,97764.31
2019-05-11T20:29:33.072Z,97770.23
2019-05-11T20:32:04.357Z,97762.33
2019-05-11T20:34:38.034Z,97769.89
2019-05-11T20:37:09.369Z,97769.89
2019-05-11T20:39:40.502Z,97768.08
2019-05-11T20:42:11.782Z,97774.19
2019-05-11T20:44:43.007Z,97775.30
2019-05-11T20:47:14.370Z,97773.82
2019-05-11T20:49:48.002Z,97775.14
2019-05-11T20:52:18.288Z,97777.78
2019-05-11T20:54:49.487Z,97776.09
2019-05-11T20:57:20.763Z,97773.78
2019-05-11T20:59:51.727Z,97770.94
2019-05-11T21:02:23.081Z,97778.19
2019-05-11T21:04:55.375Z,97776.55
2019-05-11T21:07:28.028Z,97776.04
2019-05-11T21:09:59.780Z,97773.33
2019-05-11T21:12:30.814Z,97770.85
2019-05-11T21:15:01.858Z,97779.23
2019-05-11T21:17:33.007Z,97782.23
2019-05-11T21:20:05.767Z,97776.95
2019-05-11T21:22:40.107Z,97778.89
2019-05-11T21:25:11.017Z,97776.56
2019-05-11T21:27:42.121Z,97767.95
2019-05-11T21:30:14.043Z,97777.80
2019-05-11T21:32:45.019Z,97774.16
2019-05-11T21:35:18.899Z,97781.42
2019-05-11T21:37:49.178Z,97781.02
2019-05-11T21:40:20.477Z,97780.69
2019-05-11T21:42:51.662Z,97778.55
2019-05-11T21:45:22.901Z,97783.45
2019-05-11T21:47:54.180Z,97787.21
2019-05-11T21:50:25.186Z,97785.35
2019-05-11T21:52:58.781Z,97786.67
2019-05-11T21:55:29.560Z,97791.45
2019-05-11T21:58:00.909Z,97798.31
2019-05-11T22:00:33.062Z,97789.05
2019-05-11T22:03:04.360Z,97795.17
2019-05-11T22:05:38.042Z,97794.33
2019-05-11T22:08:08.741Z,97788.34
2019-05-11T22:10:41.274Z,97790.65
2019-05-11T22:13:12.768Z,97788.59
2019-05-11T22:15:44.197Z,97789.19
2019-05-11T22:18:28.236Z,97785.59
2019-05-11T22:20:48.551Z,97787.20
2019-05-11T22:23:20.022Z,97781.02
2019-05-11T22:25:51.267Z,97789.28
2019-05-11T22:28:22.526Z,97787.78
2019-05-11T22:30:53.654Z,97790.60
2019-05-11T22:33:25.039Z,97790.42
2019-05-11T22:35:58.560Z,97793.70
2019-05-11T22:38:30.735Z,97789.20
2019-05-11T22:41:01.761Z,97790.14
2019-05-11T22:43:33.269Z,97790.23
2019-05-11T22:46:04.220Z,97790.39
2019-05-11T22:48:35.516Z,97797.61
2019-05-11T22:51:08.064Z,97798.87
2019-05-11T22:53:44.775Z,97801.99
2019-05-11T22:56:11.948Z,97792.40
2019-05-11T22:58:42.834Z,97786.36
2019-05-11T23:01:13.868Z,97797.50
2019-05-11T23:03:45.120Z,97794.00
2019-05-11T23:06:18.205Z,97797.36
2019-05-11T23:08:53.867Z,97799.80
2019-05-11T23:11:22.632Z,97799.88
2019-05-11T23:13:53.726Z,97797.13
2019-05-11T23:16:24.951Z,97790.52
2019-05-11T23:18:56.226Z,97797.51
2019-05-11T23:21:30.016Z,97801.04
2019-05-11T23:24:00.191Z,97797.50
2019-05-11T23:26:32.262Z,97795.32
2019-05-11T23:29:03.560Z,97798.02
2019-05-11T23:31:34.692Z,97806.95
2019-05-11T23:34:08.181Z,97810.17
2019-05-11T23:36:38.775Z,97812.58
2019-05-11T23:39:10.591Z,97810.19
2019-05-11T23:41:41.718Z,97819.02
2019-05-11T23:44:12.733Z,97815.56
2019-05-11T23:46:43.883Z,97817.22
2019-05-11T23:49:15.076Z,97819.11
2019-05-11T23:51:47.793Z,97818.88
2019-05-11T23:54:20.414Z,97809.34
2019-05-11T23:56:51.565Z,97809.92
2019-05-11T23:59:22.734Z,97804.87
